Time;durP1;ratioP1;P1;durP2;ratioP2;P2;SDS_P1;SDS_P2;PMS_P1;PMS_P2;Temp;Humidity;BMP_temperature;BMP_pressure;BME280_temperature;BME280_humidity;BME280_pressure;Samples;Min_cycle;Max_cycle;Signal;HPM_P1;HPM_P2
2023/03/23 00:01:10;;;;;;;10.13;7.47;;;11.40;99.90;;;;;;5051648;28;20072;-62
2023/03/23 00:03:36;;;;;;;13.98;8.00;;;11.40;99.90;;;;;;5050075;28;20082;-62
2023/03/23 00:06:04;;;;;;;9.98;7.40;;;11.40;99.90;;;;;;5050018;28;20052;-62
2023/03/23 00:08:31;;;;;;;11.77;8.23;;;11.40;99.90;;;;;;5050235;28;20071;-62
2023/03/23 00:10:58;;;;;;;15.23;8.55;;;11.40;99.90;;;;;;5042808;28;20037;-62
2023/03/23 00:13:24;;;;;;;12.15;7.65;;;11.40;99.90;;;;;;5047504;28;20041;-62
2023/03/23 00:15:51;;;;;;;11.98;7.82;;;11.40;99.90;;;;;;5051650;28;20036;-62
2023/03/23 00:18:20;;;;;;;16.08;7.60;;;11.40;99.90;;;;;;5051601;28;20045;-62
2023/03/23 00:20:50;;;;;;;12.60;8.88;;;11.40;99.90;;;;;;5050501;28;20057;-62
2023/03/23 00:23:22;;;;;;;10.80;7.32;;;11.40;99.90;;;;;;5046572;28;20395;-62
2023/03/23 00:25:50;;;;;;;7.93;6.63;;;11.40;99.90;;;;;;5049798;28;20053;-62
2023/03/23 00:28:16;;;;;;;14.27;7.38;;;11.40;99.90;;;;;;5042422;28;20038;-62
2023/03/23 00:30:42;;;;;;;14.45;7.38;;;11.40;99.90;;;;;;5049779;28;20033;-62
2023/03/23 00:33:08;;;;;;;12.32;6.63;;;11.40;99.90;;;;;;5048352;28;20056;-62
2023/03/23 00:35:35;;;;;;;11.85;6.85;;;11.50;99.90;;;;;;5049824;28;20033;-63
2023/03/23 00:38:01;;;;;;;12.18;6.65;;;11.40;99.90;;;;;;5049946;28;20055;-62
2023/03/23 00:40:27;;;;;;;11.27;7.00;;;11.50;99.90;;;;;;5048440;28;20480;-62
2023/03/23 00:42:53;;;;;;;12.77;6.82;;;11.50;99.90;;;;;;5047869;28;20517;-62
2023/03/23 00:45:19;;;;;;;11.82;7.75;;;11.40;99.90;;;;;;5050840;28;20041;-62
2023/03/23 00:47:50;;;;;;;11.52;6.88;;;11.40;99.90;;;;;;5050699;28;20041;-62
2023/03/23 00:50:17;;;;;;;12.32;6.50;;;11.40;99.90;;;;;;5049973;28;20032;-62
2023/03/23 00:52:42;;;;;;;11.20;5.88;;;11.40;99.90;;;;;;5041734;28;20074;-62
2023/03/23 00:55:08;;;;;;;11.23;6.00;;;11.50;99.90;;;;;;5049880;28;20040;-62
2023/03/23 00:57:34;;;;;;;9.60;5.18;;;11.50;99.90;;;;;;5043481;28;20064;-62
2023/03/23 00:59:59;;;;;;;7.40;4.95;;;11.50;99.90;;;;;;5047676;28;20437;-62
2023/03/23 01:02:25;;;;;;;6.72;4.35;;;11.50;99.90;;;;;;5053826;28;20037;-62
2023/03/23 01:04:52;;;;;;;8.90;4.30;;;11.50;99.90;;;;;;5051328;28;20517;-63
2023/03/23 01:07:22;;;;;;;7.80;3.72;;;11.60;99.90;;;;;;5051494;28;20041;-63
2023/03/23 01:09:48;;;;;;;6.88;3.95;;;11.60;99.90;;;;;;5051753;28;20044;-63
2023/03/23 01:12:14;;;;;;;6.30;3.88;;;11.60;99.90;;;;;;5045563;28;20041;-63
2023/03/23 01:14:41;;;;;;;5.63;3.53;;;11.60;99.90;;;;;;5053392;28;20033;-63
2023/03/23 01:17:07;;;;;;;6.45;3.60;;;11.60;99.90;;;;;;5051079;28;20120;-63
2023/03/23 01:19:32;;;;;;;7.72;3.42;;;11.60;99.90;;;;;;5053105;28;20048;-63
2023/03/23 01:21:58;;;;;;;6.82;3.45;;;11.60;99.90;;;;;;5052019;28;20049;-63
2023/03/23 01:24:24;;;;;;;6.25;3.30;;;11.60;99.90;;;;;;5047023;28;20041;-63
2023/03/23 01:26:49;;;;;;;5.60;4.05;;;11.60;99.90;;;;;;5051122;28;21774;-63
2023/03/23 01:29:15;;;;;;;8.70;4.00;;;11.70;99.90;;;;;;5049527;28;20072;-63
2023/03/23 01:31:42;;;;;;;8.40;4.80;;;11.60;99.90;;;;;;5052718;28;20048;-63
2023/03/23 01:34:09;;;;;;;10.73;5.25;;;11.60;99.90;;;;;;5044098;28;20048;-62
2023/03/23 01:36:35;;;;;;;8.82;4.80;;;11.60;99.90;;;;;;5052663;28;20498;-62
2023/03/23 01:39:03;;;;;;;8.93;5.18;;;11.60;99.90;;;;;;5050312;28;20044;-63
2023/03/23 01:41:29;;;;;;;8.60;5.10;;;11.60;99.90;;;;;;5045401;28;20049;-62
2023/03/23 01:44:01;;;;;;;6.07;4.05;;;11.50;99.90;;;;;;5044077;28;20190;-62
2023/03/23 01:46:29;;;;;;;8.85;4.18;;;11.60;99.90;;;;;;5053337;28;20410;-63
2023/03/23 01:48:57;;;;;;;9.80;5.30;;;11.50;99.90;;;;;;5053945;28;20088;-63
2023/03/23 01:51:27;;;;;;;6.85;3.95;;;11.50;99.90;;;;;;5046492;28;20045;-63
2023/03/23 01:53:58;;;;;;;11.05;4.38;;;11.50;99.90;;;;;;5052371;28;20499;-63
2023/03/23 01:56:29;;;;;;;8.15;4.50;;;11.50;99.90;;;;;;5053558;28;20037;-63
2023/03/23 01:58:56;;;;;;;8.43;4.38;;;11.50;99.90;;;;;;5053172;28;20041;-63
2023/03/23 02:01:24;;;;;;;9.57;4.25;;;11.50;99.90;;;;;;5052665;28;20037;-63
2023/03/23 02:03:53;;;;;;;9.48;3.97;;;11.50;99.90;;;;;;5047871;28;20055;-63
2023/03/23 02:06:19;;;;;;;6.78;4.00;;;11.50;99.90;;;;;;5053563;28;20116;-63
2023/03/23 02:08:49;;;;;;;10.25;4.32;;;11.60;99.90;;;;;;5053120;28;20059;-63
2023/03/23 02:11:17;;;;;;;8.75;4.53;;;11.50;99.90;;;;;;5050581;28;20490;-63
2023/03/23 02:13:44;;;;;;;7.63;4.40;;;11.50;99.90;;;;;;5042424;28;20033;-63
2023/03/23 02:16:30;;;;;;;7.32;4.30;;;11.60;99.90;;;;;;5053184;28;20040;-63
2023/03/23 02:19:47;;;;;;;8.43;4.10;;;11.50;99.90;;;;;;5042990;28;20103;-63
2023/03/23 02:22:39;;;;;;;8.75;3.72;;;11.50;99.90;;;;;;5021056;28;20045;-62
2023/03/23 02:25:18;;;;;;;6.03;3.97;;;11.50;99.90;;;;;;5051326;28;20704;-62
2023/03/23 02:28:12;;;;;;;5.43;3.67;;;11.50;99.90;;;;;;5051310;28;20087;-62
2023/03/23 02:31:12;;;;;;;5.43;3.95;;;11.50;99.90;;;;;;5042987;28;20780;-62
2023/03/23 02:33:55;;;;;;;7.07;3.78;;;11.50;99.90;;;;;;5046498;28;20547;-62
2023/03/23 02:36:33;;;;;;;8.05;3.92;;;11.50;99.90;;;;;;5052868;28;20048;-62
2023/03/23 02:39:22;;;;;;;9.00;4.38;;;11.50;99.90;;;;;;5053142;28;20039;-62
2023/03/23 02:41:58;;;;;;;8.52;4.38;;;11.40;99.90;;;;;;5051293;28;20132;-62
2023/03/23 02:44:27;;;;;;;7.55;4.03;;;11.40;99.90;;;;;;5052477;28;20406;-62
2023/03/23 02:46:54;;;;;;;5.68;4.30;;;11.40;99.90;;;;;;5050582;28;20409;-63
2023/03/23 02:49:22;;;;;;;6.07;3.95;;;11.50;99.90;;;;;;5051708;28;20069;-63
2023/03/23 02:51:49;;;;;;;8.10;4.40;;;11.40;99.90;;;;;;5051143;28;20049;-63
2023/03/23 02:54:20;;;;;;;14.82;4.78;;;11.40;99.90;;;;;;5053073;28;20065;-62
2023/03/23 02:56:47;;;;;;;7.60;4.45;;;11.40;99.90;;;;;;5051480;28;20086;-63
2023/03/23 02:59:12;;;;;;;7.80;4.05;;;11.40;99.90;;;;;;5052976;28;20041;-63
2023/03/23 03:01:38;;;;;;;5.55;4.22;;;11.40;99.90;;;;;;5047085;28;20417;-63
2023/03/23 03:04:09;;;;;;;7.22;4.20;;;11.50;99.90;;;;;;5052321;28;20045;-63
2023/03/23 03:06:52;;;;;;;7.72;4.35;;;11.40;99.90;;;;;;5050619;28;20082;-63
2023/03/23 03:09:42;;;;;;;7.70;4.28;;;11.40;99.90;;;;;;5051411;28;20128;-63
2023/03/23 03:12:24;;;;;;;8.43;4.35;;;11.50;99.90;;;;;;5050655;28;20047;-63
2023/03/23 03:15:00;;;;;;;9.32;4.30;;;11.50;99.90;;;;;;5052666;28;20033;-62
2023/03/23 03:17:29;;;;;;;5.50;3.90;;;11.50;99.90;;;;;;5052284;28;20029;-63
2023/03/23 03:20:10;;;;;;;7.18;3.90;;;11.50;99.90;;;;;;5050377;28;20132;-63
2023/03/23 03:22:41;;;;;;;5.70;3.83;;;11.50;99.90;;;;;;5050281;28;20032;-63
2023/03/23 03:25:08;;;;;;;6.63;4.18;;;11.50;99.90;;;;;;5051240;28;20037;-63
2023/03/23 03:27:34;;;;;;;7.00;4.10;;;11.50;99.90;;;;;;5051870;28;20044;-63
2023/03/23 03:30:04;;;;;;;5.88;3.60;;;11.50;99.90;;;;;;5051963;28;20041;-62
2023/03/23 03:32:38;;;;;;;10.30;4.35;;;11.50;99.90;;;;;;5050025;28;20397;-62
2023/03/23 03:35:05;;;;;;;6.53;4.40;;;11.50;99.90;;;;;;5041718;28;20465;-62
2023/03/23 03:37:39;;;;;;;6.10;4.20;;;11.50;99.90;;;;;;5045455;28;20041;-62
2023/03/23 03:40:12;;;;;;;6.43;3.90;;;11.60;99.90;;;;;;5050012;28;20610;-62
2023/03/23 03:42:39;;;;;;;8.20;4.03;;;11.50;99.90;;;;;;5049708;28;20051;-62
2023/03/23 03:45:08;;;;;;;6.35;3.90;;;11.60;99.90;;;;;;5051948;28;20041;-62
2023/03/23 03:47:33;;;;;;;7.82;4.15;;;11.60;99.90;;;;;;5048772;28;20045;-62
2023/03/23 03:49:59;;;;;;;5.78;3.75;;;11.60;99.90;;;;;;5051724;28;20094;-62
2023/03/23 03:52:25;;;;;;;8.35;4.22;;;11.70;99.90;;;;;;5049995;28;20040;-62
2023/03/23 03:54:51;;;;;;;4.57;3.75;;;11.70;99.90;;;;;;5049446;28;20048;-62
2023/03/23 03:57:17;;;;;;;7.97;4.53;;;11.70;99.90;;;;;;5047748;28;20049;-62
2023/03/23 03:59:43;;;;;;;6.90;4.45;;;11.70;99.90;;;;;;5051872;28;20091;-62
2023/03/23 04:02:13;;;;;;;9.68;4.28;;;11.70;99.90;;;;;;5049180;28;20406;-62
2023/03/23 04:04:39;;;;;;;6.82;3.92;;;11.70;99.90;;;;;;5049173;28;20029;-62
2023/03/23 04:07:05;;;;;;;7.38;4.53;;;11.80;99.90;;;;;;5051056;28;20041;-62
2023/03/23 04:09:31;;;;;;;6.65;4.50;;;11.80;99.90;;;;;;5050609;28;20048;-62
2023/03/23 04:11:56;;;;;;;7.60;4.70;;;11.80;99.90;;;;;;5049385;28;20047;-62
2023/03/23 04:14:22;;;;;;;8.43;4.45;;;11.80;99.90;;;;;;5049163;28;20041;-62
2023/03/23 04:16:51;;;;;;;7.75;4.70;;;11.70;99.90;;;;;;5051819;28;20040;-62
2023/03/23 04:19:18;;;;;;;7.22;4.43;;;11.70;99.90;;;;;;5048198;28;20091;-62
2023/03/23 04:21:45;;;;;;;6.60;4.25;;;11.70;99.90;;;;;;5042544;28;20553;-63
2023/03/23 04:24:11;;;;;;;7.70;4.95;;;11.70;99.90;;;;;;5050303;28;20045;-63
2023/03/23 04:26:39;;;;;;;7.95;5.00;;;11.70;99.90;;;;;;5051163;28;20081;-62
2023/03/23 04:29:05;;;;;;;7.40;4.65;;;11.70;99.90;;;;;;5051030;28;20037;-62
2023/03/23 04:31:31;;;;;;;9.10;4.70;;;11.70;99.90;;;;;;5049744;28;20029;-62
2023/03/23 04:33:57;;;;;;;8.02;4.45;;;11.70;99.90;;;;;;5050849;28;20051;-62
2023/03/23 04:36:23;;;;;;;7.10;4.22;;;11.70;99.90;;;;;;5056825;28;20128;-63
2023/03/23 04:38:50;;;;;;;5.18;4.65;;;11.80;99.90;;;;;;5057946;28;20116;-62
2023/03/23 04:41:16;;;;;;;8.35;4.15;;;11.80;99.90;;;;;;5055924;28;20533;-62
2023/03/23 04:43:42;;;;;;;5.30;3.42;;;11.80;99.90;;;;;;5057615;28;20068;-62
2023/03/23 04:46:08;;;;;;;8.68;4.20;;;11.90;99.90;;;;;;5057019;28;20064;-63
2023/03/23 04:48:35;;;;;;;8.63;4.45;;;11.90;99.90;;;;;;5056682;28;20037;-63
2023/03/23 04:51:02;;;;;;;6.63;4.22;;;11.90;99.90;;;;;;5055581;28;20043;-62
2023/03/23 04:53:29;;;;;;;9.82;3.85;;;11.80;99.90;;;;;;5048389;28;20032;-63
2023/03/23 04:55:55;;;;;;;7.22;4.53;;;11.90;99.90;;;;;;5057151;28;20033;-63
2023/03/23 04:58:21;;;;;;;7.75;3.90;;;11.80;99.90;;;;;;5057207;28;20040;-62
2023/03/23 05:00:49;;;;;;;9.00;4.72;;;11.80;99.90;;;;;;5053273;28;20063;-63
2023/03/23 05:03:19;;;;;;;9.20;4.10;;;11.80;99.90;;;;;;5054430;28;20561;-63
2023/03/23 05:05:51;;;;;;;7.50;3.70;;;11.80;99.90;;;;;;5103976;22;20051;-65
2023/03/23 05:08:19;;;;;;;7.55;3.97;;;11.90;99.90;;;;;;5087646;28;20078;-65
2023/03/23 05:10:52;;;;;;;6.97;4.38;;;11.90;99.90;;;;;;5095819;28;20048;-65
2023/03/23 05:13:17;;;;;;;7.75;4.50;;;11.80;99.90;;;;;;5087982;28;20563;-65
2023/03/23 05:15:43;;;;;;;9.25;4.00;;;11.80;99.90;;;;;;5079409;28;20115;-65
2023/03/23 05:18:09;;;;;;;6.10;4.32;;;11.80;99.90;;;;;;5075657;28;20131;-65
2023/03/23 05:20:35;;;;;;;6.10;4.15;;;11.80;99.90;;;;;;5077842;28;20070;-65
2023/03/23 05:23:01;;;;;;;7.88;4.85;;;11.80;99.90;;;;;;5076160;28;20045;-65
2023/03/23 05:25:26;;;;;;;12.00;4.80;;;11.80;99.90;;;;;;5077513;28;20067;-65
2023/03/23 05:27:52;;;;;;;13.43;5.28;;;11.80;99.90;;;;;;5075959;28;20568;-66
2023/03/23 05:30:20;;;;;;;9.30;3.78;;;11.70;99.90;;;;;;5077587;28;20090;-67
2023/03/23 05:32:50;;;;;;;8.38;2.90;;;11.60;99.90;;;;;;5073488;28;20075;-67
2023/03/23 05:35:17;;;;;;;7.78;3.10;;;11.40;99.90;;;;;;5076458;28;20056;-66
2023/03/23 05:37:43;;;;;;;9.50;3.60;;;11.40;99.90;;;;;;5074150;28;20394;-65
2023/03/23 05:40:11;;;;;;;5.95;3.75;;;11.40;99.90;;;;;;5076587;28;20045;-65
2023/03/23 05:42:37;;;;;;;9.07;4.28;;;11.30;99.90;;;;;;5073465;28;20048;-66
2023/03/23 05:45:04;;;;;;;8.82;4.95;;;11.30;99.90;;;;;;5076142;28;20087;-65
2023/03/23 05:47:30;;;;;;;9.35;4.55;;;11.30;99.90;;;;;;5071164;28;20398;-65
2023/03/23 05:49:56;;;;;;;11.93;5.07;;;11.20;99.90;;;;;;5073117;28;20041;-65
2023/03/23 05:52:23;;;;;;;8.18;4.22;;;11.20;99.90;;;;;;5071227;28;20111;-66
2023/03/23 05:54:49;;;;;;;6.75;3.83;;;11.20;99.90;;;;;;5074136;28;20040;-66
2023/03/23 05:57:15;;;;;;;7.30;4.10;;;11.20;99.90;;;;;;5072191;28;20119;-65
2023/03/23 05:59:40;;;;;;;5.82;2.88;;;11.20;99.90;;;;;;5072419;28;20044;-65
2023/03/23 06:02:06;;;;;;;6.03;3.40;;;11.20;99.90;;;;;;5070777;28;20399;-65
2023/03/23 06:04:33;;;;;;;6.20;2.72;;;11.30;99.90;;;;;;5073013;28;20048;-65
2023/03/23 06:07:00;;;;;;;9.27;3.17;;;11.20;99.90;;;;;;5071125;28;20063;-65
2023/03/23 06:09:26;;;;;;;6.70;2.47;;;11.20;99.90;;;;;;5073999;28;20044;-66
2023/03/23 06:11:52;;;;;;;5.78;2.30;;;11.20;99.90;;;;;;5071443;28;20036;-65
2023/03/23 06:14:17;;;;;;;4.68;2.33;;;11.20;99.90;;;;;;5072244;28;20050;-65
2023/03/23 06:16:43;;;;;;;4.88;2.53;;;11.20;99.90;;;;;;5071335;28;20107;-65
2023/03/23 06:19:09;;;;;;;7.15;2.22;;;11.20;99.90;;;;;;5067661;28;20133;-65
2023/03/23 06:21:35;;;;;;;8.10;2.35;;;11.20;99.90;;;;;;5065615;28;20037;-66
2023/03/23 06:24:01;;;;;;;7.53;2.35;;;11.20;99.90;;;;;;5070775;28;20409;-65
2023/03/23 06:26:33;;;;;;;4.20;2.33;;;11.20;99.90;;;;;;5072594;28;20040;-65
2023/03/23 06:28:58;;;;;;;8.63;2.35;;;11.20;99.90;;;;;;5071524;28;20049;-65
2023/03/23 06:31:26;;;;;;;5.93;2.40;;;11.20;99.90;;;;;;5073086;28;20032;-65
2023/03/23 06:33:51;;;;;;;5.97;2.33;;;11.20;99.90;;;;;;5072527;28;20072;-65
2023/03/23 06:36:17;;;;;;;6.90;2.75;;;11.10;99.90;;;;;;5069225;28;20517;-65
2023/03/23 06:38:43;;;;;;;7.95;2.92;;;11.20;99.90;;;;;;5070345;28;20072;-65
2023/03/23 06:41:08;;;;;;;7.75;2.50;;;11.20;99.90;;;;;;5072641;28;20041;-65
2023/03/23 06:43:35;;;;;;;5.75;2.58;;;11.20;99.90;;;;;;5072869;28;20044;-65
2023/03/23 06:46:01;;;;;;;9.82;3.47;;;11.20;99.90;;;;;;5072581;28;20049;-65
2023/03/23 06:48:27;;;;;;;13.45;2.85;;;11.20;99.90;;;;;;5070663;28;20464;-65
2023/03/23 06:50:53;;;;;;;7.82;3.15;;;11.30;99.90;;;;;;5071805;28;20037;-65
2023/03/23 06:53:20;;;;;;;8.98;3.45;;;11.30;99.90;;;;;;5071774;28;20048;-65
2023/03/23 06:55:46;;;;;;;7.95;2.88;;;11.30;99.90;;;;;;5073089;28;20642;-65
2023/03/23 06:58:12;;;;;;;8.13;2.83;;;11.30;99.90;;;;;;5068298;28;20116;-65
2023/03/23 07:00:39;;;;;;;13.85;3.30;;;11.30;99.90;;;;;;5072713;28;20061;-65
2023/03/23 07:03:05;;;;;;;12.98;3.42;;;11.30;99.90;;;;;;5070378;28;20036;-65
2023/03/23 07:05:33;;;;;;;12.10;3.22;;;11.30;99.90;;;;;;5066471;28;20043;-65
2023/03/23 07:07:59;;;;;;;9.90;3.30;;;11.30;99.90;;;;;;5064526;28;20072;-65
2023/03/23 07:10:25;;;;;;;12.07;3.30;;;11.30;99.90;;;;;;5069855;28;20063;-65
2023/03/23 07:12:50;;;;;;;10.55;3.67;;;11.30;99.90;;;;;;5072180;28;20067;-65
2023/03/23 07:15:16;;;;;;;6.57;3.08;;;11.30;99.90;;;;;;5068669;28;20041;-65
2023/03/23 07:17:42;;;;;;;9.63;3.65;;;11.30;99.90;;;;;;5068289;28;20033;-65
2023/03/23 07:20:08;;;;;;;11.25;3.88;;;11.30;99.90;;;;;;5072229;28;20077;-65
2023/03/23 07:22:35;;;;;;;11.82;2.95;;;11.40;99.90;;;;;;5067794;28;20032;-65
2023/03/23 07:25:00;;;;;;;9.25;3.35;;;11.40;99.90;;;;;;5067034;28;20040;-65
2023/03/23 07:27:26;;;;;;;12.68;3.58;;;11.40;99.90;;;;;;5072077;28;20040;-65
2023/03/23 07:29:51;;;;;;;9.30;3.15;;;11.40;99.90;;;;;;5062952;28;20040;-65
2023/03/23 07:32:17;;;;;;;10.52;3.30;;;11.40;99.90;;;;;;5069133;28;20071;-65
2023/03/23 07:34:42;;;;;;;9.23;3.65;;;11.50;99.90;;;;;;5061851;28;20029;-65
2023/03/23 07:37:08;;;;;;;9.18;3.38;;;11.50;99.90;;;;;;5072963;28;20052;-65
2023/03/23 07:39:34;;;;;;;11.80;3.85;;;11.50;99.90;;;;;;5065433;28;20032;-65
2023/03/23 07:42:00;;;;;;;11.45;3.72;;;11.50;99.90;;;;;;5070015;28;20055;-65
2023/03/23 07:44:26;;;;;;;12.25;3.65;;;11.50;99.90;;;;;;5065876;28;20415;-65
2023/03/23 07:46:52;;;;;;;11.93;3.33;;;11.60;99.90;;;;;;5073722;28;20393;-65
2023/03/23 07:49:18;;;;;;;13.15;4.28;;;11.70;99.90;;;;;;5069207;28;20044;-65
2023/03/23 07:51:45;;;;;;;9.82;3.45;;;11.70;99.90;;;;;;5086311;28;20044;-65
2023/03/23 07:54:11;;;;;;;9.10;2.58;;;11.80;99.90;;;;;;5072352;28;20124;-65
2023/03/23 07:56:39;;;;;;;11.65;3.05;;;11.80;99.90;;;;;;5068449;28;20185;-65
2023/03/23 07:59:05;;;;;;;9.30;2.53;;;11.80;99.90;;;;;;5065795;28;20063;-65
2023/03/23 08:01:32;;;;;;;6.90;2.58;;;11.90;99.90;;;;;;5071524;28;20044;-65
2023/03/23 08:03:59;;;;;;;12.82;3.33;;;11.90;99.90;;;;;;5070222;28;20078;-65
2023/03/23 08:06:24;;;;;;;7.80;3.08;;;11.90;99.90;;;;;;5067239;28;20127;-65
2023/03/23 08:08:50;;;;;;;11.60;3.05;;;11.90;99.90;;;;;;5064605;28;20483;-65
2023/03/23 08:11:17;;;;;;;12.88;3.70;;;12.00;99.90;;;;;;5069107;28;20036;-65
2023/03/23 08:13:43;;;;;;;16.30;4.03;;;12.00;99.90;;;;;;5069347;28;20045;-65
2023/03/23 08:16:09;;;;;;;14.23;3.90;;;12.00;99.90;;;;;;5064409;28;20058;-65
2023/03/23 08:18:37;;;;;;;15.32;4.10;;;12.10;99.90;;;;;;5059921;28;20086;-65
2023/03/23 08:21:04;;;;;;;11.85;4.03;;;12.00;99.90;;;;;;5068816;28;20123;-65
2023/03/23 08:23:31;;;;;;;18.35;4.32;;;12.00;99.90;;;;;;5065936;28;20044;-65
2023/03/23 08:25:57;;;;;;;12.68;3.60;;;12.10;99.90;;;;;;5070567;28;20040;-65
2023/03/23 08:28:23;;;;;;;13.63;4.25;;;12.10;99.90;;;;;;5069277;28;20037;-65
2023/03/23 08:30:49;;;;;;;15.50;4.30;;;12.10;99.90;;;;;;5069447;28;20406;-65
2023/03/23 08:33:16;;;;;;;16.48;4.05;;;12.00;99.90;;;;;;5065428;28;20033;-65
2023/03/23 08:35:43;;;;;;;13.15;4.00;;;12.00;99.90;;;;;;5071348;28;20497;-65
2023/03/23 08:38:11;;;;;;;19.75;4.55;;;12.00;99.90;;;;;;5070572;28;20047;-65
2023/03/23 08:40:37;;;;;;;14.10;4.28;;;12.10;99.90;;;;;;5061118;28;20162;-65
2023/03/23 08:43:02;;;;;;;17.10;4.25;;;12.10;99.90;;;;;;5069744;28;20040;-65
2023/03/23 08:45:28;;;;;;;12.75;3.78;;;12.10;99.90;;;;;;5070493;28;20111;-65
2023/03/23 08:47:55;;;;;;;12.35;3.80;;;12.00;99.90;;;;;;5066780;28;20475;-65
2023/03/23 08:50:25;;;;;;;14.27;4.47;;;12.00;99.90;;;;;;5066812;28;20040;-64
2023/03/23 08:52:52;;;;;;;15.68;4.45;;;12.00;99.90;;;;;;5068240;28;20043;-65
2023/03/23 08:55:19;;;;;;;15.85;4.05;;;12.00;99.90;;;;;;5068086;28;20170;-64
2023/03/23 08:57:45;;;;;;;12.13;4.57;;;12.00;99.90;;;;;;5067394;28;20067;-65
2023/03/23 09:00:17;;;;;;;14.90;4.40;;;12.00;99.90;;;;;;5067484;28;20074;-65
2023/03/23 09:02:45;;;;;;;17.13;4.57;;;12.00;99.90;;;;;;5069009;28;20040;-65
2023/03/23 09:05:11;;;;;;;12.50;3.70;;;12.00;99.90;;;;;;5069911;28;20044;-65
2023/03/23 09:07:42;;;;;;;13.65;4.43;;;12.10;99.90;;;;;;5066915;28;20119;-65
2023/03/23 09:10:09;;;;;;;12.98;4.28;;;12.20;99.90;;;;;;5068924;28;20045;-64
2023/03/23 09:12:35;;;;;;;16.35;4.63;;;12.30;99.90;;;;;;5069614;28;20040;-64
2023/03/23 09:15:08;;;;;;;13.13;3.90;;;12.30;99.90;;;;;;5070339;28;20067;-65
2023/03/23 09:17:38;;;;;;;15.10;4.20;;;12.30;99.90;;;;;;5066665;28;20025;-65
2023/03/23 09:20:14;;;;;;;12.63;4.05;;;12.30;99.90;;;;;;5072044;28;20039;-64
2023/03/23 09:22:42;;;;;;;15.40;4.70;;;12.30;99.90;;;;;;5073315;28;20029;-64
2023/03/23 09:25:10;;;;;;;12.73;4.45;;;12.30;99.90;;;;;;5069302;28;20024;-64
2023/03/23 09:27:36;;;;;;;15.45;4.05;;;12.40;99.90;;;;;;5073906;28;20115;-65
2023/03/23 09:30:08;;;;;;;12.68;4.10;;;12.30;99.90;;;;;;5071351;28;20055;-65
2023/03/23 09:32:34;;;;;;;;;;;12.30;99.90;;;;;;5067986;28;20064;-65
2023/03/23 09:35:00;;;;;;;14.27;5.22;;;12.30;99.90;;;;;;5071551;28;19999;-64
2023/03/23 09:37:26;;;;;;;10.63;4.80;;;12.30;99.90;;;;;;5071920;28;20538;-65
2023/03/23 09:39:53;;;;;;;11.52;4.95;;;12.30;99.90;;;;;;5074177;28;20154;-65
2023/03/23 09:42:29;;;;;;;11.70;4.07;;;12.40;99.90;;;;;;5069842;28;20040;-65
2023/03/23 09:45:06;;;;;;;8.43;4.22;;;12.50;99.90;;;;;;5073863;28;20139;-64
2023/03/23 09:48:03;;;;;;;13.90;4.38;;;12.70;99.90;;;;;;5059416;28;20043;-64
2023/03/23 09:50:32;;;;;;;15.48;4.00;;;12.90;99.90;;;;;;5065640;28;20044;-64
2023/03/23 09:53:03;;;;;;;10.90;3.80;;;13.00;99.90;;;;;;5066933;28;20499;-64
2023/03/23 09:55:29;;;;;;;11.82;3.50;;;13.10;99.90;;;;;;5081679;28;20029;-64
2023/03/23 09:58:24;;;;;;;10.73;3.80;;;13.30;99.90;;;;;;5080070;28;20032;-64
2023/03/23 10:01:04;;;;;;;9.98;3.08;;;13.40;99.90;;;;;;5053056;28;20078;-64
2023/03/23 10:03:42;;;;;;;13.23;3.40;;;13.40;99.90;;;;;;5060530;28;20033;-64
2023/03/23 10:06:12;;;;;;;7.43;3.42;;;13.30;99.90;;;;;;5073670;28;20035;-64
2023/03/23 10:08:42;;;;;;;13.27;3.72;;;13.10;99.90;;;;;;5072692;28;20044;-64
2023/03/23 10:11:38;;;;;;;8.80;3.42;;;13.00;99.90;;;;;;5070603;28;20040;-64
2023/03/23 10:14:24;;;;;;;11.52;3.65;;;12.90;99.90;;;;;;5072571;28;20058;-64
2023/03/23 10:17:08;;;;;;;11.00;3.67;;;12.90;99.90;;;;;;5070057;28;20037;-64
2023/03/23 10:19:36;;;;;;;11.10;3.30;;;13.10;99.90;;;;;;5066085;28;20036;-64
2023/03/23 10:22:10;;;;;;;9.25;3.40;;;13.20;99.90;;;;;;5073012;28;20039;-64
2023/03/23 10:24:46;;;;;;;14.93;3.63;;;13.40;99.90;;;;;;5066682;28;20124;-64
2023/03/23 10:27:49;;;;;;;10.60;3.08;;;13.50;99.90;;;;;;5072209;28;20387;-64
2023/03/23 10:30:19;;;;;;;7.22;2.65;;;13.50;99.90;;;;;;5072646;28;20486;-64
2023/03/23 10:33:01;;;;;;;8.48;3.38;;;13.40;99.90;;;;;;5071538;28;20036;-64
2023/03/23 10:35:36;;;;;;;9.45;2.38;;;13.50;99.90;;;;;;5073190;28;20037;-64
2023/03/23 10:38:09;;;;;;;6.07;2.30;;;13.80;99.90;;;;;;5072239;28;20121;-64
2023/03/23 10:40:49;;;;;;;7.57;2.33;;;13.90;99.90;;;;;;5065994;28;20044;-64
2023/03/23 10:43:15;;;;;;;6.78;2.40;;;13.80;99.90;;;;;;5072734;28;20040;-64
2023/03/23 10:45:44;;;;;;;8.60;2.17;;;13.80;99.90;;;;;;5072365;28;20502;-64
2023/03/23 10:48:20;;;;;;;8.82;2.28;;;13.70;99.90;;;;;;5071956;28;20465;-64
2023/03/23 10:50:50;;;;;;;9.43;2.10;;;13.80;99.90;;;;;;5072941;28;20040;-64
2023/03/23 10:53:20;;;;;;;9.60;2.55;;;13.80;99.90;;;;;;5072598;28;20040;-63
2023/03/23 10:55:46;;;;;;;7.50;1.90;;;14.00;99.90;;;;;;5073384;28;20123;-65
2023/03/23 10:58:23;;;;;;;8.40;2.20;;;14.30;99.90;;;;;;5071495;28;20087;-64
2023/03/23 11:00:50;;;;;;;8.65;1.88;;;14.50;99.90;;;;;;5072552;28;20048;-65
2023/03/23 11:03:17;;;;;;;7.40;2.45;;;14.60;99.90;;;;;;5072089;28;20037;-64
2023/03/23 11:05:50;;;;;;;8.43;2.35;;;14.70;99.90;;;;;;5071074;22;20041;-62
2023/03/23 11:08:21;;;;;;;9.52;2.10;;;14.80;99.90;;;;;;5032748;28;20143;-61
2023/03/23 11:10:56;;;;;;;8.48;1.77;;;14.80;99.90;;;;;;5052660;28;20124;-61
2023/03/23 11:13:27;;;;;;;11.02;2.80;;;14.90;99.90;;;;;;5049164;28;20037;-62
2023/03/23 11:15:53;;;;;;;7.00;2.42;;;14.90;99.90;;;;;;5047510;28;20112;-62
2023/03/23 11:18:36;;;;;;;6.28;1.98;;;14.80;99.90;;;;;;5050569;28;20079;-62
2023/03/23 11:21:04;;;;;;;10.25;2.38;;;14.90;99.90;;;;;;5034150;28;20516;-62
2023/03/23 11:23:41;;;;;;;7.88;1.98;;;15.00;99.90;;;;;;5047509;28;20376;-62
2023/03/23 11:26:21;;;;;;;8.02;2.45;;;15.10;99.90;;;;;;5046866;28;20055;-62
2023/03/23 11:29:12;;;;;;;10.83;2.23;;;15.20;99.90;;;;;;5046409;28;20365;-63
2023/03/23 11:32:06;;;;;;;10.13;2.83;;;15.20;99.90;;;;;;5010876;28;20037;-62
2023/03/23 11:34:35;;;;;;;8.55;2.45;;;15.10;99.90;;;;;;5049743;28;20029;-62
2023/03/23 11:37:06;;;;;;;8.60;2.38;;;14.90;99.90;;;;;;5050615;28;20486;-62
2023/03/23 11:39:45;;;;;;;10.07;2.63;;;14.80;99.90;;;;;;5051032;28;20508;-62
2023/03/23 11:42:18;;;;;;;8.23;2.67;;;14.90;99.90;;;;;;5051118;28;20037;-62
2023/03/23 11:44:45;;;;;;;7.65;2.00;;;15.00;99.90;;;;;;5033683;28;20057;-62
2023/03/23 11:47:39;;;;;;;8.52;2.00;;;15.10;99.90;;;;;;5033199;28;20048;-62
2023/03/23 11:50:33;;;;;;;7.43;1.98;;;15.30;99.90;;;;;;5050622;28;20048;-62
2023/03/23 11:53:31;;;;;;;11.40;2.30;;;15.50;99.90;;;;;;5047742;28;20041;-62
2023/03/23 11:56:18;;;;;;;9.75;1.90;;;15.60;99.90;;;;;;5022604;28;20083;-62
2023/03/23 11:58:45;;;;;;;8.00;1.98;;;15.70;99.90;;;;;;5041067;28;20037;-62
2023/03/23 12:01:32;;;;;;;9.10;2.13;;;15.80;99.90;;;;;;5031189;28;20116;-62
2023/03/23 12:04:13;;;;;;;8.80;2.45;;;15.80;99.90;;;;;;5033861;28;20094;-62
2023/03/23 12:06:46;;;;;;;6.78;1.95;;;15.90;99.90;;;;;;5051894;28;20052;-62
2023/03/23 12:09:27;;;;;;;11.02;2.60;;;16.00;99.90;;;;;;5031936;28;20044;-62
2023/03/23 12:12:00;;;;;;;8.63;1.77;;;16.00;99.90;;;;;;5050565;28;20044;-62
2023/03/23 12:15:04;;;;;;;11.05;2.50;;;16.00;99.90;;;;;;5051771;28;20036;-63
2023/03/23 12:17:49;;;;;;;7.68;2.17;;;16.10;99.90;;;;;;5005727;28;20057;-62
2023/03/23 12:20:26;;;;;;;9.43;2.38;;;16.10;99.90;;;;;;5050382;28;20594;-62
2023/03/23 12:23:13;;;;;;;11.05;2.67;;;16.10;99.90;;;;;;5051468;28;20525;-62
2023/03/23 12:25:58;;;;;;;9.73;2.42;;;16.20;99.90;;;;;;5031806;28;20103;-62
2023/03/23 12:28:40;;;;;;;12.40;2.97;;;16.20;99.90;;;;;;5050416;28;20045;-63
2023/03/23 12:31:33;;;;;;;10.10;2.03;;;16.30;99.90;;;;;;5050561;28;20079;-63
2023/03/23 12:34:23;;;;;;;8.52;2.63;;;16.30;99.90;;;;;;5051235;28;20037;-63
2023/03/23 12:37:28;;;;;;;9.50;2.45;;;16.40;99.90;;;;;;5050553;28;20044;-62
2023/03/23 12:40:08;;;;;;;11.00;2.05;;;16.40;99.90;;;;;;5046630;28;20040;-62
2023/03/23 12:43:01;;;;;;;7.47;1.67;;;16.30;99.90;;;;;;5048042;28;20044;-63
2023/03/23 12:45:45;;;;;;;9.82;2.22;;;16.10;99.90;;;;;;5048763;28;20048;-62
2023/03/23 12:48:16;;;;;;;7.88;2.15;;;15.90;99.90;;;;;;5047419;28;20425;-63
2023/03/23 12:50:45;;;;;;;11.25;2.28;;;15.70;99.90;;;;;;5050195;28;20072;-63
2023/03/23 12:53:23;;;;;;;10.40;2.38;;;15.60;99.90;;;;;;5050959;28;20041;-62
2023/03/23 12:56:18;;;;;;;4.97;1.60;;;15.70;99.90;;;;;;5050165;28;20033;-62
2023/03/23 12:58:46;;;;;;;8.77;2.10;;;15.90;99.90;;;;;;5050192;28;20537;-62
2023/03/23 13:01:23;;;;;;;9.10;1.80;;;15.90;99.90;;;;;;5053710;28;20041;-62